.
WxDataArchive / Data Records for 2006-10-16
2006-10-15 October 2006 2006-10-17

Data Records for Monday, 16 October 2006

Time	Temp	Chill	HIndex	Humid	Dewpt	 Wind 	HiWind	WindDir	Rain 	Barom 
-----	----	-----	------	-----	-----	------	------	-------	-----	----- 
00:00	46.8	46.8	46.8	60	33.7	0	0	---	0.00	30.058 
00:05	46.8	46.8	46.8	60	33.7	0	0	---	0.00	30.058 
00:10	46.8	46.8	46.8	58	32.8	0	0	---	0.00	30.058 
00:15	46.8	46.8	46.8	59	33.2	0	0	---	0.00	30.048 
00:20	46.8	46.8	46.8	59	33.2	0	0	---	0.00	30.048 
00:25	46.8	46.8	46.8	58	32.8	0	0	---	0.00	30.048 
00:30	46.8	46.8	46.8	58	32.8	0	0	---	0.00	30.048 
00:35	46.8	46.8	46.8	60	33.7	0	1	270	0.00	30.048 
00:40	46.8	46.8	46.8	59	33.2	0	1	270	0.00	30.048 
00:45	46.8	46.8	46.8	59	33.2	0	1	270	0.00	30.046 
00:50	46.8	46.8	46.8	60	33.7	0	0	---	0.00	30.046 
00:55	47.0	47.0	47.0	58	33.0	0	1	270	0.00	30.046 
01:00	47.0	47.0	47.0	59	33.4	0	1	270	0.00	30.042 
01:05	47.1	47.1	47.1	58	33.1	0	1	270	0.00	30.042 
01:10	47.1	47.1	47.1	58	33.1	0	1	270	0.00	30.042 
01:15	47.1	47.1	47.1	58	33.1	0	1	270	0.00	30.042 
01:20	47.1	47.1	47.1	58	33.1	0	1	270	0.00	30.042 
01:25	47.1	47.1	47.1	58	33.1	0	1	270	0.00	30.042 
01:30	47.1	47.1	47.1	58	33.1	0	1	270	0.00	30.041 
01:35	47.1	47.1	47.1	58	33.1	0	1	270	0.00	30.041 
01:40	47.3	47.3	47.3	58	33.3	0	1	270	0.00	30.041 
01:45	47.3	47.3	47.3	59	33.7	0	1	270	0.00	30.038 
01:50	47.3	47.3	47.3	63	35.4	0	0	---	0.00	30.038 
01:55	47.1	47.1	47.1	62	34.8	0	0	---	0.00	30.038 
02:00	47.1	47.1	47.1	65	35.9	0	0	---	0.00	30.033 
02:05	47.0	47.0	47.0	65	35.9	0	1	270	0.00	30.033 
02:10	47.0	47.0	47.0	65	35.9	0	0	---	0.00	30.033 
02:15	46.8	46.8	46.8	66	36.0	0	0	---	0.00	30.032 
02:20	46.8	46.8	46.8	65	35.7	0	0	---	0.00	30.032 
02:25	46.7	46.7	46.7	67	36.3	0	0	---	0.00	30.032 
02:30	46.7	46.7	46.7	66	36.0	0	0	---	0.00	30.038 
02:35	46.7	46.7	46.7	65	35.6	0	0	---	0.00	30.038 
02:40	46.7	46.7	46.7	66	36.0	0	0	---	0.00	30.038 
02:45	46.7	46.7	46.7	65	35.6	0	0	---	0.00	30.045 
02:50	46.7	46.7	46.7	67	36.3	0	0	---	0.00	30.045 
02:55	46.7	46.7	46.7	69	37.1	0	0	---	0.00	30.045 
03:00	46.7	46.7	46.7	69	37.1	0	0	---	0.00	30.049 
03:05	46.7	46.7	46.7	69	37.1	0	0	---	0.00	30.049 
03:10	46.7	46.7	46.7	70	37.4	0	0	---	0.00	30.049 
03:15	46.7	46.7	46.7	71	37.8	0	0	---	0.00	30.047 
03:20	46.5	46.5	46.5	71	37.6	0	0	---	0.00	30.047 
03:25	46.5	46.5	46.5	74	38.7	0	0	---	0.00	30.047 
03:30	46.5	46.5	46.5	75	39.0	0	0	---	0.00	30.044 
03:35	46.5	46.5	46.5	74	38.7	0	0	---	0.00	30.044 
03:40	46.5	46.5	46.5	75	39.0	0	0	---	0.00	30.044 
03:45	46.5	46.5	46.5	75	39.0	0	0	---	0.00	30.045 
03:50	46.4	46.4	46.4	75	38.9	0	0	---	0.00	30.045 
03:55	46.4	46.4	46.4	74	38.6	0	0	---	0.00	30.045 
04:00	46.2	46.2	46.2	74	38.4	0	0	---	0.00	30.047 
04:05	46.2	46.2	46.2	74	38.4	0	0	---	0.00	30.047 
04:10	46.4	46.4	46.4	73	38.2	0	0	---	0.00	30.047 
04:15	46.4	46.4	46.4	75	38.9	0	0	---	0.00	30.044 
04:20	46.4	46.4	46.4	76	39.3	0	0	---	0.00	30.044 
04:25	46.5	46.5	46.5	77	39.7	0	0	---	0.00	30.044 
04:30	46.4	46.4	46.4	76	39.3	0	1	270	0.00	30.041 
04:35	46.4	46.4	46.4	76	39.3	0	1	270	0.00	30.041 
04:40	46.4	46.4	46.4	75	38.9	0	0	---	0.00	30.041 
04:45	46.4	46.4	46.4	73	38.2	0	0	---	0.00	30.041 
04:50	46.5	46.5	46.5	75	39.0	0	0	---	0.00	30.041 
04:55	46.5	46.5	46.5	77	39.7	0	0	---	0.00	30.041 
05:00	46.5	46.5	46.5	77	39.7	0	0	---	0.00	30.037 
05:05	46.4	46.4	46.4	80	40.6	0	0	---	0.00	30.037 
05:10	46.4	46.4	46.4	81	40.9	0	0	---	0.00	30.037 
05:15	46.2	46.2	46.2	80	40.4	0	0	---	0.00	30.037 
05:20	46.1	46.1	46.1	80	40.3	0	0	---	0.00	30.037 
05:25	46.1	46.1	46.1	79	40.0	0	0	---	0.00	30.037 
05:30	46.1	46.1	46.1	80	40.3	0	0	---	0.00	30.034 
05:35	46.1	46.1	46.1	80	40.3	0	0	---	0.00	30.034 
05:40	46.1	46.1	46.1	78	39.6	0	0	---	0.00	30.034 
05:45	46.1	46.1	46.1	76	39.0	0	1	270	0.00	30.033 
05:50	46.2	46.2	46.2	74	38.4	1	2	270	0.00	30.033 
05:55	46.4	46.4	46.4	74	38.6	0	2	270	0.00	30.033 
06:00	46.5	46.5	46.5	75	39.0	0	0	---	0.00	30.031 
06:05	46.5	46.5	46.5	74	38.7	0	0	---	0.00	30.031 
06:10	46.7	46.7	46.7	73	38.5	0	1	270	0.00	30.031 
06:15	46.7	46.7	46.7	74	38.9	0	1	270	0.00	30.031 
06:20	46.8	46.8	46.8	75	39.3	0	1	270	0.00	30.031 
06:25	46.7	46.7	46.7	74	38.9	0	1	270	0.00	30.031 
06:30	46.7	46.7	46.7	74	38.9	1	2	270	0.00	30.028 
06:35	46.8	46.8	46.8	73	38.6	1	3	270	0.00	30.028 
06:40	46.8	46.8	46.8	72	38.3	0	1	270	0.00	30.028 
06:45	46.8	46.8	46.8	73	38.6	0	1	270	0.00	30.035 
06:50	46.8	46.8	46.8	72	38.3	0	1	270	0.00	30.035 
06:55	46.8	46.8	46.8	74	39.0	1	2	270	0.00	30.035 
07:00	46.8	46.8	46.8	73	38.6	0	1	270	0.00	30.033 
07:05	46.8	46.8	46.8	74	39.0	1	2	270	0.00	30.033 
07:10	46.8	46.8	46.8	74	39.0	1	2	270	0.00	30.033 
07:15	46.8	46.8	46.8	73	38.6	1	2	270	0.00	30.031 
07:20	46.8	46.8	46.8	73	38.6	1	2	270	0.00	30.031 
07:25	46.8	46.8	46.8	73	38.6	1	2	0	0.00	30.031 
07:30	47.0	47.0	47.0	73	38.8	0	2	0	0.00	30.032 
07:35	47.0	47.0	47.0	72	38.4	1	2	0	0.00	30.032 
07:40	47.1	47.1	47.1	72	38.5	0	3	112	0.00	30.032 
07:45	47.1	47.1	47.1	71	38.2	1	3	112	0.00	30.031 
07:50	47.3	47.3	47.3	70	38.0	1	2	112	0.00	30.031 
07:55	47.3	47.3	47.3	71	38.4	0	2	112	0.00	30.031 
08:00	47.4	47.4	47.4	69	37.7	0	1	112	0.00	30.034 
08:05	47.4	47.4	47.4	69	37.7	0	2	112	0.00	30.034 
08:10	47.6	47.6	47.6	69	37.9	0	2	112	0.00	30.034 
08:15	47.6	47.6	47.6	69	37.9	0	1	112	0.00	30.039 
08:20	47.6	47.6	47.6	69	37.9	0	1	112	0.00	30.039 
08:25	47.6	47.6	47.6	69	37.9	0	1	112	0.00	30.039 
08:30	47.6	47.6	47.6	69	37.9	0	1	112	0.00	30.048 
08:35	47.7	47.7	47.7	69	38.0	0	2	112	0.00	30.048 
08:40	47.7	47.7	47.7	69	38.0	0	2	112	0.00	30.048 
08:45	47.9	47.9	47.9	69	38.2	0	2	112	0.00	30.047 
08:50	48.0	48.0	48.0	67	37.6	2	4	68	0.00	30.047 
08:55	48.2	48.2	48.2	68	38.1	1	4	68	0.00	30.047 
09:00	48.3	48.3	48.3	68	38.2	1	3	68	0.00	30.031 
09:05	48.5	48.5	48.5	68	38.4	1	4	68	0.00	30.031 
09:10	48.6	48.6	48.6	65	37.4	2	5	90	0.00	30.031 
09:15	48.8	48.8	48.8	65	37.6	2	4	90	0.00	30.038 
09:20	48.8	48.8	48.8	65	37.6	1	4	112	0.00	30.038 
09:25	48.9	48.9	48.9	65	37.7	1	3	90	0.00	30.038 
09:30	48.9	48.9	48.9	65	37.7	1	4	68	0.00	30.039 
09:35	48.9	48.9	48.9	66	38.0	1	3	68	0.00	30.039 
09:40	49.1	49.1	49.1	65	37.8	1	4	68	0.00	30.039 
09:45	49.2	49.2	49.2	67	38.7	1	2	68	0.00	30.038 
09:50	49.4	49.4	49.4	67	38.9	1	3	68	0.00	30.038 
09:55	49.4	49.4	49.4	65	38.1	2	3	68	0.00	30.038 
10:00	49.5	49.5	49.5	65	38.2	2	4	90	0.00	30.030 
10:05	49.6	49.6	49.6	65	38.3	1	4	90	0.00	30.030 
10:10	49.9	49.9	49.9	65	38.6	1	2	90	0.00	30.030 
10:15	50.1	50.1	50.1	65	38.8	1	3	90	0.00	30.030 
10:20	50.4	50.4	50.4	65	39.1	1	3	112	0.00	30.030 
10:25	50.7	50.7	50.7	64	39.0	1	3	112	0.00	30.030 
10:30	51.1	51.1	51.1	63	38.9	1	3	112	0.00	30.029 
10:35	51.4	51.4	51.4	63	39.2	1	4	112	0.00	30.029 
10:40	51.9	51.9	51.9	61	38.9	1	3	112	0.00	30.029 
10:45	52.5	52.5	52.5	60	39.0	2	5	112	0.00	30.029 
10:50	53.1	53.1	53.1	57	38.3	1	4	90	0.00	30.029 
10:55	53.3	53.3	53.3	55	37.5	1	3	112	0.00	30.029 
11:00	53.5	53.5	53.5	54	37.3	2	5	90	0.00	30.027 
11:05	53.6	53.6	53.6	53	36.9	2	5	90	0.00	30.027 
11:10	53.6	53.6	53.6	53	36.9	1	5	90	0.00	30.027 
11:15	53.6	53.6	53.6	52	36.4	1	5	112	0.00	30.027 
11:20	53.8	53.8	53.8	53	37.1	1	3	90	0.00	30.027 
11:25	53.8	53.8	53.8	53	37.1	1	3	90	0.00	30.027 
11:30	53.9	53.9	53.9	53	37.2	1	3	112	0.00	30.023 
11:35	53.9	53.9	53.9	52	36.7	1	3	90	0.00	30.023 
11:40	53.9	53.9	53.9	53	37.2	0	3	135	0.00	30.023 
11:45	53.9	53.9	53.9	53	37.2	0	3	112	0.00	30.022 
11:50	54.1	54.1	54.1	52	36.9	1	3	112	0.00	30.022 
11:55	54.2	54.2	54.2	51	36.5	1	3	90	0.00	30.022 
12:00	54.4	54.4	54.4	50	36.2	1	4	112	0.00	30.018 
12:05	54.5	54.5	54.5	51	36.7	1	3	112	0.00	30.018 
12:10	54.7	54.7	54.7	49	35.9	1	5	90	0.00	30.018 
12:15	54.7	54.7	54.7	49	35.9	2	5	90	0.00	30.012 
12:20	54.8	54.8	54.8	48	35.5	1	4	112	0.00	30.012 
12:25	55.0	55.0	55.0	49	36.2	1	6	112	0.00	30.012 
12:30	55.0	55.0	55.0	48	35.7	1	3	90	0.00	30.011 
12:35	55.1	55.1	55.1	50	36.8	1	2	112	0.00	30.011 
12:40	55.1	55.1	55.1	49	36.3	2	6	112	0.00	30.011 
12:45	55.3	55.3	55.3	47	35.4	1	3	90	0.00	30.007 
12:50	55.4	55.4	55.4	46	35.0	1	4	112	0.00	30.007 
12:55	55.6	55.6	55.6	47	35.7	1	6	90	0.00	30.007 
13:00	55.6	55.6	55.6	46	35.2	1	4	112	0.00	30.008 
13:05	55.7	55.7	55.7	47	35.8	1	4	112	0.00	30.008 
13:10	55.7	55.7	55.7	46	35.2	1	4	112	0.00	30.008 
13:15	55.7	55.7	55.7	45	34.7	1	6	90	0.00	30.011 
13:20	55.7	55.7	55.7	46	35.2	1	2	112	0.00	30.011 
13:25	55.7	55.7	55.7	45	34.7	1	3	135	0.00	30.011 
13:30	55.9	55.9	55.9	46	35.4	1	3	112	0.00	30.020 
13:35	55.9	55.9	55.9	46	35.4	1	4	22	0.00	30.020 
13:40	55.7	55.7	55.7	46	35.2	1	3	90	0.00	30.020 
13:45	55.7	55.7	55.7	50	37.3	1	3	112	0.00	30.010 
13:50	55.6	55.6	55.6	51	37.8	1	4	112	0.00	30.010 
13:55	55.4	55.4	55.4	51	37.6	1	2	112	0.00	30.010 
14:00	55.1	55.1	55.1	51	37.3	1	4	112	0.00	30.002 
14:05	55.0	55.0	55.0	52	37.7	1	3	112	0.00	30.002 
14:10	55.0	55.0	55.0	52	37.7	1	4	112	0.00	30.002 
14:15	54.8	54.8	54.8	54	38.5	1	3	90	0.00	29.992 
14:20	54.7	54.7	54.7	55	38.9	1	2	90	0.00	29.992 
14:25	54.7	54.7	54.7	54	38.4	1	3	112	0.00	29.992 
14:30	54.7	54.7	54.7	55	38.9	1	3	90	0.00	29.981 
14:35	54.7	54.7	54.7	56	39.3	1	2	90	0.00	29.981 
14:40	54.7	54.7	54.7	57	39.8	1	2	112	0.00	29.981 
14:45	54.7	54.7	54.7	55	38.9	1	3	112	0.00	29.976 
14:50	54.7	54.7	54.7	55	38.9	1	3	90	0.00	29.976 
14:55	54.8	54.8	54.8	55	38.9	1	3	112	0.00	29.976 
15:00	54.8	54.8	54.8	53	38.0	1	5	135	0.00	29.969 
15:05	54.8	54.8	54.8	54	38.5	1	3	112	0.00	29.969 
15:10	54.8	54.8	54.8	54	38.5	1	4	112	0.00	29.969 
15:15	54.8	54.8	54.8	54	38.5	1	2	135	0.00	29.964 
15:20	54.8	54.8	54.8	55	38.9	1	4	135	0.00	29.964 
15:25	54.7	54.7	54.7	55	38.9	1	2	112	0.00	29.964 
15:30	54.7	54.7	54.7	53	37.9	1	3	112	0.00	29.965 
15:35	54.7	54.7	54.7	54	38.4	1	3	112	0.00	29.965 
15:40	54.7	54.7	54.7	54	38.4	1	5	112	0.00	29.965 
15:45	54.7	54.7	54.7	53	37.9	1	4	112	0.00	29.965 
15:50	54.8	54.8	54.8	54	38.5	1	3	112	0.00	29.965 
15:55	54.8	54.8	54.8	55	38.9	1	2	112	0.00	29.965 
16:00	54.7	54.7	54.7	54	38.4	1	3	112	0.00	29.952 
16:05	54.7	54.7	54.7	55	38.9	1	3	68	0.00	29.952 
16:10	54.7	54.7	54.7	56	39.3	0	2	68	0.00	29.952 
16:15	54.5	54.5	54.5	56	39.1	1	2	90	0.00	29.951 
16:20	54.5	54.5	54.5	57	39.6	1	2	112	0.00	29.951 
16:25	54.4	54.4	54.4	58	39.9	1	3	112	0.00	29.951 
16:30	54.2	54.2	54.2	58	39.7	1	2	112	0.00	29.950 
16:35	54.1	54.1	54.1	61	41.0	1	2	112	0.00	29.950 
16:40	53.9	53.9	53.9	59	39.9	1	4	112	0.00	29.950 
16:45	53.8	53.8	53.8	61	40.7	1	4	90	0.00	29.950 
16:50	53.6	53.6	53.6	64	41.7	0	2	90	0.00	29.950 
16:55	53.5	53.5	53.5	63	41.2	1	2	112	0.00	29.950 
17:00	53.3	53.3	53.3	64	41.4	0	2	112	0.00	29.959 
17:05	53.2	53.2	53.2	65	41.7	0	2	90	0.00	29.959 
17:10	53.1	53.1	53.1	66	42.0	0	2	90	0.00	29.959 
17:15	52.8	52.8	52.8	66	41.8	1	3	90	0.00	29.963 
17:20	52.6	52.6	52.6	67	42.0	1	3	112	0.01	29.963 
17:25	52.3	52.3	52.3	68	42.1	1	2	135	0.00	29.963 
17:30	52.0	52.0	52.0	70	42.5	1	3	135	0.00	29.962 
17:35	51.7	51.7	51.7	70	42.2	1	3	112	0.00	29.962 
17:40	51.6	51.6	51.6	72	42.9	0	2	112	0.00	29.962 
17:45	51.3	51.3	51.3	73	42.9	1	2	112	0.00	29.952 
17:50	51.1	51.1	51.1	74	43.1	0	2	112	0.00	29.952 
17:55	50.8	50.8	50.8	75	43.2	1	3	112	0.00	29.952 
18:00	50.7	50.7	50.7	76	43.4	1	4	112	0.01	29.950 
18:05	50.4	50.4	50.4	77	43.5	1	4	158	0.00	29.950 
18:10	50.2	50.2	50.2	77	43.3	1	3	112	0.00	29.950 
18:15	50.1	50.1	50.1	77	43.2	1	4	90	0.00	29.950 
18:20	49.8	49.8	49.8	79	43.6	1	3	135	0.00	29.950 
18:25	49.6	49.6	49.6	79	43.4	1	4	135	0.01	29.950 
18:30	49.5	49.5	49.5	80	43.6	1	2	135	0.00	29.943 
18:35	49.2	49.2	49.2	81	43.6	1	2	135	0.00	29.943 
18:40	49.2	49.2	49.2	83	44.3	0	1	135	0.00	29.943 
18:45	48.9	48.9	48.9	83	44.0	0	2	68	0.01	29.939 
18:50	48.8	48.8	48.8	83	43.9	1	3	112	0.00	29.939 
18:55	48.8	48.8	48.8	85	44.5	0	2	90	0.00	29.939 
19:00	48.6	48.6	48.6	85	44.3	1	2	112	0.01	29.939 
19:05	48.5	48.5	48.5	86	44.5	1	2	90	0.00	29.939 
19:10	48.3	48.3	48.3	87	44.6	1	2	90	0.01	29.939 
19:15	48.0	48.0	48.0	87	44.3	1	3	90	0.00	29.935 
19:20	48.0	48.0	48.0	87	44.3	1	3	90	0.01	29.935 
19:25	47.9	47.9	47.9	87	44.2	1	3	112	0.01	29.935 
19:30	47.7	47.7	47.7	88	44.3	1	3	90	0.01	29.929 
19:35	47.6	47.6	47.6	89	44.5	1	3	112	0.01	29.929 
19:40	47.6	47.6	47.6	89	44.5	1	5	90	0.01	29.929 
19:45	47.4	47.4	47.4	90	44.6	1	3	112	0.01	29.923 
19:50	47.4	47.4	47.4	90	44.6	1	3	90	0.01	29.923 
19:55	47.3	47.3	47.3	91	44.8	1	5	90	0.00	29.923 
20:00	47.3	47.3	47.3	91	44.8	2	4	112	0.01	29.919 
20:05	47.1	47.1	47.1	91	44.6	2	6	112	0.00	29.919 
20:10	47.1	47.1	47.1	91	44.6	2	6	112	0.01	29.919 
20:15	47.1	47.1	47.1	91	44.6	3	10	112	0.01	29.911 
20:20	47.0	47.0	47.0	91	44.5	2	5	112	0.01	29.911 
20:25	47.0	47.0	47.0	91	44.5	2	5	90	0.01	29.911 
20:30	47.0	47.0	47.0	91	44.5	2	6	112	0.01	29.907 
20:35	46.8	46.8	46.8	91	44.3	2	5	112	0.01	29.907 
20:40	46.8	46.8	46.8	92	44.6	3	6	112	0.01	29.907 
20:45	46.7	46.7	46.7	92	44.5	3	7	112	0.01	29.900 
20:50	46.7	46.7	46.7	92	44.5	3	7	90	0.01	29.900 
20:55	46.5	46.5	46.5	92	44.3	2	10	90	0.01	29.900 
21:00	46.5	46.5	46.5	92	44.3	2	5	90	0.01	29.894 
21:05	46.5	46.5	46.5	93	44.6	2	7	112	0.01	29.894 
21:10	46.4	46.4	46.4	93	44.5	2	9	112	0.01	29.894 
21:15	46.4	46.4	46.4	93	44.5	3	7	112	0.01	29.888 
21:20	46.4	46.4	46.4	93	44.5	3	6	112	0.01	29.888 
21:25	46.4	46.4	46.4	93	44.5	3	6	112	0.01	29.888 
21:30	46.4	46.4	46.4	93	44.5	3	9	90	0.01	29.872 
21:35	46.4	46.4	46.4	94	44.8	3	9	112	0.01	29.872 
21:40	46.4	46.4	46.4	94	44.8	3	7	112	0.01	29.872 
21:45	46.4	46.4	46.4	94	44.8	3	5	90	0.01	29.867 
21:50	46.4	44.7	46.4	94	44.8	4	7	90	0.00	29.867 
21:55	46.4	46.4	46.4	94	44.8	2	5	90	0.01	29.867 
22:00	46.4	46.4	46.4	94	44.8	3	11	90	0.00	29.854 
22:05	46.4	46.4	46.4	94	44.8	3	7	90	0.01	29.854 
22:10	46.5	44.8	46.5	94	44.9	4	9	90	0.00	29.854 
22:15	46.5	46.5	46.5	94	44.9	3	7	90	0.00	29.836 
22:20	46.5	46.5	46.5	94	44.9	3	6	90	0.01	29.836 
22:25	46.5	44.8	46.5	94	44.9	4	10	90	0.00	29.836 
22:30	46.5	44.8	46.5	94	44.9	4	8	90	0.00	29.823 
22:35	46.7	45.1	46.7	94	45.1	4	9	90	0.00	29.823 
22:40	46.7	46.7	46.7	94	45.1	3	7	90	0.00	29.823 
22:45	46.7	46.7	46.7	94	45.1	3	9	90	0.01	29.809 
22:50	46.7	46.7	46.7	95	45.3	3	7	90	0.00	29.809 
22:55	46.8	46.8	46.8	95	45.4	3	8	112	0.00	29.809 
23:00	47.0	47.0	47.0	95	45.6	3	9	112	0.00	29.800 
23:05	47.0	45.4	47.0	95	45.6	4	9	90	0.01	29.800 
23:10	47.0	45.4	47.0	95	45.6	4	9	90	0.00	29.800 
23:15	47.1	47.1	47.1	95	45.7	3	10	90	0.00	29.788 
23:20	47.1	47.1	47.1	95	45.7	3	10	112	0.01	29.788 
23:25	47.3	47.3	47.3	95	45.9	3	7	112	0.00	29.788 
23:30	47.3	47.3	47.3	95	45.9	3	5	112	0.00	29.774 
23:35	47.4	47.4	47.4	95	46.0	3	6	90	0.00	29.774 
23:40	47.4	45.9	47.4	95	46.0	4	12	90	0.00	29.774 
23:45	47.6	46.1	47.6	95	46.2	4	11	112	0.01	29.756 
23:50	47.7	46.2	47.7	95	46.3	4	10	112	0.00	29.756 
23:55	47.7	47.7	47.7	95	46.3	3	8	112	0.00	29.756 

CoCoRaHS
IN-AL-39
A2 Web Hosting
Creative Commons License
GoDaddy
Look for:

loaded 2017-12-11 14:23:56 • last modified 2010-11-18 10:43:29
Privacy PolicyDisclaimer
• wx.awcolley.com is powered by PmWiki v.2002016 •
• all content (unless otherwise noted) © 2017 A W Colley